createdAt,value
2023-08-13T00:00:50.972Z,137.88
2023-08-13T00:02:53.683Z,146.13
2023-08-13T00:04:56.354Z,134.73
2023-08-13T00:06:58.964Z,209.88
2023-08-13T00:09:01.757Z,145.50
2023-08-13T00:11:09.507Z,140.77
2023-08-13T00:13:16.260Z,175.82
2023-08-13T00:15:19.663Z,170.88
2023-08-13T00:17:22.501Z,139.52
2023-08-13T00:19:25.055Z,231.90
2023-08-13T00:21:27.640Z,203.13
2023-08-13T00:23:30.523Z,142.70
2023-08-13T00:25:33.024Z,159.45
2023-08-13T00:27:35.662Z,146.88
2023-08-13T00:29:42.094Z,172.75
2023-08-13T00:31:46.311Z,136.30
2023-08-13T00:33:49.219Z,147.95
2023-08-13T00:35:54.878Z,169.20
2023-08-13T00:37:57.469Z,128.88
2023-08-13T00:39:59.992Z,144.63
2023-08-13T00:42:02.732Z,278.50
2023-08-13T00:44:05.917Z,133.23
2023-08-13T00:46:11.511Z,145.07
2023-08-13T00:48:14.671Z,162.98
2023-08-13T00:50:18.713Z,179.57
2023-08-13T00:52:21.529Z,172.32
2023-08-13T00:54:24.492Z,174.95
2023-08-13T00:56:27.123Z,144.63
2023-08-13T00:58:29.722Z,206.30
2023-08-13T01:00:32.648Z,263.20
2023-08-13T01:02:38.480Z,195.00
2023-08-13T01:04:41.021Z,221.88
2023-08-13T01:06:50.917Z,227.52
2023-08-13T01:09:13.751Z,250.00
2023-08-13T01:11:25.216Z,274.60
2023-08-13T01:13:34.860Z,251.60
2023-08-13T01:15:40.961Z,280.15
2023-08-13T01:17:49.220Z,296.27
2023-08-13T01:19:51.774Z,345.80
2023-08-13T01:21:54.947Z,359.88
2023-08-13T01:24:00.344Z,310.37
2023-08-13T01:26:09.216Z,291.20
2023-08-13T01:28:21.934Z,401.17
2023-08-13T01:30:30.442Z,322.27
2023-08-13T01:32:39.918Z,322.02
2023-08-13T01:34:44.679Z,421.30
2023-08-13T01:36:48.114Z,477.55
2023-08-13T01:38:51.546Z,344.45
2023-08-13T01:40:58.105Z,368.77
2023-08-13T01:43:00.864Z,298.63
2023-08-13T01:45:03.633Z,332.25
2023-08-13T01:47:06.676Z,348.92
2023-08-13T01:49:09.356Z,368.30
2023-08-13T01:51:11.882Z,405.85
2023-08-13T01:53:14.407Z,407.75
2023-08-13T01:55:17.230Z,494.15
2023-08-13T01:57:23.360Z,379.93
2023-08-13T01:59:25.960Z,299.02
2023-08-13T02:01:28.694Z,376.58
2023-08-13T02:03:31.581Z,332.98
2023-08-13T02:05:35.064Z,374.85
2023-08-13T02:07:37.819Z,361.83
2023-08-13T02:09:40.406Z,466.52
2023-08-13T02:11:43.007Z,498.08
2023-08-13T02:13:48.575Z,485.02
2023-08-13T02:15:51.990Z,401.85
2023-08-13T02:17:54.742Z,418.08
2023-08-13T02:19:57.384Z,538.33
2023-08-13T02:21:59.884Z,493.85
2023-08-13T02:24:02.499Z,546.92
2023-08-13T02:26:05.059Z,516.30
2023-08-13T02:28:07.735Z,561.10
2023-08-13T02:30:15.932Z,486.48
2023-08-13T02:32:18.442Z,537.10
2023-08-13T02:34:21.072Z,583.13
2023-08-13T02:36:23.634Z,548.22
2023-08-13T02:38:26.221Z,544.10
2023-08-13T02:40:28.828Z,504.73
2023-08-13T02:42:31.325Z,587.78
2023-08-13T02:44:33.948Z,562.47
2023-08-13T02:46:39.306Z,474.63
2023-08-13T02:48:41.986Z,463.65
2023-08-13T02:50:44.588Z,535.65
2023-08-13T02:52:47.363Z,498.77
2023-08-13T02:54:49.945Z,578.53
2023-08-13T02:56:52.522Z,593.35
2023-08-13T02:58:55.106Z,532.53
2023-08-13T03:00:57.748Z,525.10
2023-08-13T03:03:03.127Z,555.55
2023-08-13T03:05:06.411Z,557.80
2023-08-13T03:07:09.015Z,525.95
2023-08-13T03:09:20.670Z,565.42
2023-08-13T03:11:23.320Z,544.47
2023-08-13T03:13:27.031Z,511.48
2023-08-13T03:15:30.978Z,521.97
2023-08-13T03:17:34.809Z,531.13
2023-08-13T03:19:42.161Z,529.60
2023-08-13T03:21:44.815Z,577.17
2023-08-13T03:23:47.738Z,526.17
2023-08-13T03:25:50.840Z,558.50
2023-08-13T03:27:53.484Z,555.03
2023-08-13T03:29:57.347Z,544.80
2023-08-13T03:32:00.046Z,568.10
2023-08-13T03:34:02.766Z,566.58
2023-08-13T03:36:08.279Z,494.92
2023-08-13T03:38:11.619Z,580.38
2023-08-13T03:40:15.234Z,493.10
2023-08-13T03:42:17.919Z,529.97
2023-08-13T03:44:20.555Z,531.15
2023-08-13T03:46:23.179Z,556.42
2023-08-13T03:48:25.776Z,511.00
2023-08-13T03:50:28.309Z,476.73
2023-08-13T03:52:33.482Z,544.25
2023-08-13T03:54:36.292Z,559.50
2023-08-13T03:56:39.012Z,501.60
2023-08-13T03:58:41.697Z,527.75
2023-08-13T04:00:47.569Z,534.60
2023-08-13T04:02:50.839Z,488.65
2023-08-13T04:04:53.850Z,570.85
2023-08-13T04:06:56.446Z,452.58
2023-08-13T04:09:01.632Z,467.55
2023-08-13T04:11:04.238Z,521.03
2023-08-13T04:13:06.875Z,475.27
2023-08-13T04:15:10.313Z,520.28
2023-08-13T04:17:15.209Z,502.15
2023-08-13T04:21:21.733Z,475.73
2023-08-13T04:23:24.299Z,530.78
2023-08-13T04:25:30.243Z,564.30
2023-08-13T04:27:32.904Z,534.38
2023-08-13T04:29:36.026Z,544.97
2023-08-13T04:31:38.723Z,459.35
2023-08-13T04:33:41.365Z,508.02
2023-08-13T04:35:43.976Z,416.45
2023-08-13T04:37:46.699Z,559.28
2023-08-13T04:39:50.678Z,411.60
2023-08-13T04:42:00.637Z,511.88
2023-08-13T04:44:05.199Z,480.88
2023-08-13T04:46:07.866Z,501.33
2023-08-13T04:48:12.489Z,516.45
2023-08-13T04:50:15.798Z,425.77
2023-08-13T04:52:18.357Z,516.58
2023-08-13T04:54:21.133Z,441.40
2023-08-13T04:56:23.696Z,471.55
2023-08-13T04:58:28.960Z,507.85
2023-08-13T05:00:31.746Z,522.15
2023-08-13T05:02:36.422Z,533.45
2023-08-13T05:04:40.754Z,545.70
2023-08-13T05:06:45.272Z,518.80
2023-08-13T05:08:47.862Z,493.02
2023-08-13T05:10:51.165Z,455.48
2023-08-13T05:12:53.796Z,429.02
2023-08-13T05:14:59.318Z,532.65
2023-08-13T05:17:02.181Z,486.42
2023-08-13T05:19:06.039Z,432.50
2023-08-13T05:21:09.342Z,500.75
2023-08-13T05:23:12.076Z,541.08
2023-08-13T05:25:15.392Z,535.40
2023-08-13T05:27:18.145Z,503.23
2023-08-13T05:29:21.038Z,549.25
2023-08-13T05:31:26.560Z,477.88
2023-08-13T05:33:29.130Z,519.30
2023-08-13T05:35:31.862Z,495.40
2023-08-13T05:37:36.611Z,523.78
2023-08-13T05:39:40.594Z,485.52
2023-08-13T05:41:43.277Z,520.20
2023-08-13T05:43:45.855Z,520.63
2023-08-13T05:45:48.493Z,473.15
2023-08-13T05:47:54.723Z,528.90
2023-08-13T05:49:58.621Z,484.20
2023-08-13T05:52:01.289Z,423.30
2023-08-13T05:54:04.418Z,484.55
2023-08-13T05:56:06.920Z,512.45
2023-08-13T05:58:09.504Z,499.42
2023-08-13T06:00:14.501Z,520.03
2023-08-13T06:02:18.155Z,539.78
2023-08-13T06:04:23.368Z,492.10
2023-08-13T06:06:27.117Z,476.13
2023-08-13T06:08:29.836Z,528.63
2023-08-13T06:10:32.511Z,458.08
2023-08-13T06:12:35.239Z,490.42
2023-08-13T06:14:38.058Z,501.98
2023-08-13T06:16:40.807Z,542.83
2023-08-13T06:18:43.479Z,545.08
2023-08-13T06:20:48.547Z,544.33
2023-08-13T06:22:51.926Z,488.08
2023-08-13T06:24:54.561Z,509.95
2023-08-13T06:26:57.227Z,514.63
2023-08-13T06:29:00.084Z,482.90
2023-08-13T06:31:03.810Z,506.25
2023-08-13T06:33:06.662Z,527.10
2023-08-13T06:35:09.961Z,496.83
2023-08-13T06:37:15.179Z,445.07
2023-08-13T06:39:17.922Z,517.28
2023-08-13T06:41:20.505Z,529.78
2023-08-13T06:43:23.261Z,534.05
2023-08-13T06:45:28.165Z,513.08
2023-08-13T06:47:31.826Z,482.20
2023-08-13T06:49:34.359Z,543.15
2023-08-13T06:51:36.990Z,537.35
2023-08-13T06:53:42.420Z,520.58
2023-08-13T06:55:44.912Z,508.30
2023-08-13T06:57:48.092Z,333.02
2023-08-13T06:59:50.666Z,453.13
2023-08-13T07:01:53.314Z,515.15
2023-08-13T07:03:55.988Z,541.03
2023-08-13T07:05:58.637Z,468.27
2023-08-13T07:08:01.360Z,540.00
2023-08-13T07:10:07.392Z,535.22
2023-08-13T07:12:10.011Z,544.15
2023-08-13T07:14:12.596Z,489.55
2023-08-13T07:16:15.261Z,458.48
2023-08-13T07:18:17.954Z,413.42
2023-08-13T07:20:20.511Z,393.30
2023-08-13T07:22:23.272Z,244.85
2023-08-13T07:24:26.681Z,363.92
2023-08-13T07:26:32.905Z,277.15
2023-08-13T07:28:36.110Z,277.98
2023-08-13T07:30:39.034Z,323.20
2023-08-13T07:32:43.131Z,138.82
2023-08-13T07:34:46.577Z,270.60
2023-08-13T07:36:49.156Z,168.82
2023-08-13T07:38:51.754Z,121.88
2023-08-13T07:40:54.671Z,138.57
2023-08-13T07:43:01.828Z,125.82
2023-08-13T07:45:07.446Z,123.60
2023-08-13T07:47:10.297Z,124.18
2023-08-13T07:49:13.241Z,173.38
2023-08-13T07:51:16.552Z,96.70
2023-08-13T07:53:19.111Z,107.32
2023-08-13T07:55:21.973Z,76.47
2023-08-13T07:57:24.479Z,117.05
2023-08-13T07:59:29.829Z,91.13
2023-08-13T08:01:32.526Z,119.07
2023-08-13T08:03:35.133Z,105.65
2023-08-13T08:05:37.755Z,82.38
2023-08-13T08:07:40.374Z,147.07
2023-08-13T08:09:42.940Z,117.10
2023-08-13T08:11:45.546Z,65.85
2023-08-13T08:13:48.101Z,78.60
2023-08-13T08:15:53.224Z,77.10
2023-08-13T08:17:55.897Z,103.75
2023-08-13T08:20:01.234Z,151.90
2023-08-13T08:22:04.730Z,105.40
2023-08-13T08:24:07.668Z,109.97
2023-08-13T08:26:11.019Z,76.57
2023-08-13T08:28:13.804Z,98.45
2023-08-13T08:30:16.286Z,78.30
2023-08-13T08:32:21.563Z,86.25
2023-08-13T08:34:24.740Z,84.07
2023-08-13T08:36:27.425Z,79.83
2023-08-13T08:38:29.975Z,77.35
2023-08-13T08:40:33.987Z,86.72
2023-08-13T08:42:38.139Z,95.22
2023-08-13T08:44:44.043Z,145.25
2023-08-13T08:46:48.678Z,90.85
2023-08-13T08:48:53.953Z,86.97
2023-08-13T08:50:57.560Z,100.57
2023-08-13T08:53:00.105Z,99.88
2023-08-13T08:55:04.189Z,77.55
2023-08-13T08:59:09.859Z,108.95
2023-08-13T09:01:12.591Z,84.78
2023-08-13T09:03:15.110Z,89.68
2023-08-13T09:05:21.726Z,67.95
2023-08-13T09:07:30.430Z,105.93
2023-08-13T09:09:33.358Z,68.93
2023-08-13T09:11:36.551Z,79.72
2023-08-13T09:13:48.841Z,60.88
2023-08-13T09:15:54.929Z,59.08
2023-08-13T09:17:59.570Z,208.77
2023-08-13T09:20:09.126Z,105.55
2023-08-13T09:22:17.657Z,50.47
2023-08-13T09:24:31.738Z,75.00
2023-08-13T09:26:35.084Z,44.47
2023-08-13T09:28:44.424Z,133.63
2023-08-13T09:30:47.612Z,126.95
2023-08-13T09:32:50.651Z,53.63
2023-08-13T09:34:54.068Z,46.50
2023-08-13T09:36:57.942Z,58.20
2023-08-13T09:39:03.346Z,44.35
2023-08-13T09:41:06.746Z,41.80
2023-08-13T09:43:10.530Z,63.83
2023-08-13T09:45:17.148Z,46.38
2023-08-13T09:47:23.554Z,65.32
2023-08-13T09:49:30.723Z,52.72
2023-08-13T09:53:43.526Z,49.70
2023-08-13T09:55:52.547Z,46.75
2023-08-13T09:57:59.955Z,43.00
2023-08-13T10:00:03.195Z,48.55
2023-08-13T10:02:09.561Z,289.95
2023-08-13T10:04:12.822Z,59.28
2023-08-13T10:06:16.133Z,59.53
2023-08-13T10:08:19.352Z,75.40
2023-08-13T10:10:22.276Z,70.28
2023-08-13T10:14:32.213Z,49.85
2023-08-13T10:16:35.022Z,65.72
2023-08-13T10:18:37.725Z,49.95
2023-08-13T10:20:45.107Z,43.72
2023-08-13T10:22:48.131Z,89.38
2023-08-13T10:24:50.688Z,44.65
2023-08-13T10:26:53.961Z,50.28
2023-08-13T10:28:59.246Z,307.27
2023-08-13T10:31:32.909Z,76.80
2023-08-13T10:33:37.155Z,77.10
2023-08-13T10:35:40.682Z,43.33
2023-08-13T10:37:50.879Z,53.50
2023-08-13T10:40:07.851Z,70.53
2023-08-13T10:42:46.580Z,82.90
2023-08-13T10:44:52.391Z,397.95
2023-08-13T10:46:55.595Z,324.17
2023-08-13T10:48:59.290Z,56.30
2023-08-13T10:51:01.850Z,100.07
2023-08-13T10:53:06.930Z,139.10
2023-08-13T10:55:11.088Z,93.47
2023-08-13T10:57:14.002Z,178.93
2023-08-13T10:59:17.711Z,274.10
2023-08-13T11:01:22.859Z,94.53
2023-08-13T11:03:29.746Z,54.67
2023-08-13T11:05:32.921Z,84.28
2023-08-13T11:07:36.982Z,74.65
2023-08-13T11:11:43.806Z,83.07
2023-08-13T11:13:46.955Z,141.90
2023-08-13T11:15:54.264Z,118.90
2023-08-13T11:17:59.521Z,137.35
2023-08-13T11:20:06.688Z,201.57
2023-08-13T11:22:09.916Z,179.93
2023-08-13T11:24:13.537Z,105.40
2023-08-13T11:26:18.196Z,196.40
2023-08-13T11:28:21.612Z,266.05
2023-08-13T11:30:24.296Z,113.82
2023-08-13T11:32:26.895Z,193.23
2023-08-13T11:34:32.112Z,211.63
2023-08-13T11:36:34.743Z,217.82
2023-08-13T11:38:37.547Z,96.70
2023-08-13T11:40:40.216Z,147.98
2023-08-13T11:42:53.224Z,68.03
2023-08-13T11:44:55.910Z,137.35
2023-08-13T11:47:01.831Z,134.55
2023-08-13T11:49:04.542Z,83.10
2023-08-13T11:51:21.212Z,105.50
2023-08-13T11:53:24.314Z,116.72
2023-08-13T11:55:27.457Z,60.08
2023-08-13T11:57:30.078Z,61.25
2023-08-13T11:59:32.698Z,78.32
2023-08-13T12:01:38.592Z,74.05
2023-08-13T12:03:43.857Z,91.78
2023-08-13T12:05:46.642Z,103.57
2023-08-13T12:07:53.613Z,67.35
2023-08-13T12:09:56.129Z,74.15
2023-08-13T12:11:59.397Z,93.07
2023-08-13T12:14:07.885Z,101.07
2023-08-13T12:16:10.569Z,91.57
2023-08-13T12:18:15.322Z,207.93
2023-08-13T12:20:17.987Z,162.93
2023-08-13T12:22:20.488Z,204.10
2023-08-13T12:24:25.528Z,99.32
2023-08-13T12:26:28.309Z,93.22
2023-08-13T12:28:31.676Z,165.02
2023-08-13T12:30:34.252Z,82.25
2023-08-13T12:32:37.046Z,130.40
2023-08-13T12:34:39.589Z,60.47
2023-08-13T12:36:42.088Z,69.25
2023-08-13T12:38:44.656Z,83.68
2023-08-13T12:40:49.877Z,111.47
2023-08-13T12:42:52.537Z,81.18
2023-08-13T12:44:55.117Z,80.15
2023-08-13T12:46:57.674Z,66.63
2023-08-13T12:49:00.223Z,159.15
2023-08-13T12:51:02.919Z,75.30
2023-08-13T12:53:05.873Z,78.97
2023-08-13T12:55:08.704Z,86.20
2023-08-13T12:57:13.898Z,62.33
2023-08-13T12:59:19.193Z,68.90
2023-08-13T13:01:21.996Z,114.00
2023-08-13T13:03:24.624Z,74.25
2023-08-13T13:05:27.204Z,65.05
2023-08-13T13:07:29.802Z,61.60
2023-08-13T13:09:32.552Z,62.45
2023-08-13T13:11:35.451Z,208.85
2023-08-13T13:13:40.752Z,74.13
2023-08-13T13:15:43.743Z,60.90
2023-08-13T13:17:46.235Z,68.22
2023-08-13T13:19:48.719Z,69.32
2023-08-13T13:21:51.335Z,80.03
2023-08-13T13:23:53.780Z,99.65
2023-08-13T13:25:56.273Z,64.07
2023-08-13T13:28:01.672Z,65.60
2023-08-13T13:30:10.358Z,78.18
2023-08-13T13:32:12.837Z,116.72
2023-08-13T13:34:16.168Z,62.03
2023-08-13T13:36:18.780Z,64.85
2023-08-13T13:38:21.669Z,79.63
2023-08-13T13:40:24.745Z,131.05
2023-08-13T13:42:27.235Z,66.53
2023-08-13T13:44:29.760Z,66.45
2023-08-13T13:46:34.943Z,69.57
2023-08-13T13:48:37.560Z,84.93
2023-08-13T13:50:40.161Z,58.78
2023-08-13T13:52:42.835Z,62.75
2023-08-13T13:54:45.353Z,516.58
2023-08-13T13:56:47.802Z,394.10
2023-08-13T13:58:50.304Z,73.03
2023-08-13T14:00:52.958Z,72.32
2023-08-13T14:02:58.253Z,238.57
2023-08-13T14:05:01.107Z,91.13
2023-08-13T14:07:03.647Z,72.00
2023-08-13T14:09:06.414Z,64.28
2023-08-13T14:11:08.961Z,63.58
2023-08-13T14:13:11.452Z,83.43
2023-08-13T14:15:14.092Z,67.68
2023-08-13T14:17:16.534Z,130.82
2023-08-13T14:19:21.772Z,80.43
2023-08-13T14:21:24.376Z,75.55
2023-08-13T14:23:26.909Z,82.50
2023-08-13T14:25:29.723Z,137.75
2023-08-13T14:27:32.309Z,110.85
2023-08-13T14:29:35.042Z,136.13
2023-08-13T14:31:38.518Z,122.03
2023-08-13T14:33:41.274Z,210.38
2023-08-13T14:35:46.480Z,127.97
2023-08-13T14:37:48.939Z,190.52
2023-08-13T14:39:51.487Z,179.25
2023-08-13T14:41:54.466Z,81.72
2023-08-13T14:43:57.214Z,90.93
2023-08-13T14:45:59.773Z,129.07
2023-08-13T14:48:02.516Z,131.07
2023-08-13T14:50:06.114Z,120.25
2023-08-13T14:52:11.319Z,74.63
2023-08-13T14:54:13.953Z,161.60
2023-08-13T14:56:16.560Z,84.35
2023-08-13T14:58:19.064Z,125.38
2023-08-13T15:00:23.356Z,64.72
2023-08-13T15:02:26.632Z,75.55
2023-08-13T15:04:29.213Z,68.25
2023-08-13T15:06:31.844Z,144.27
2023-08-13T15:08:37.336Z,156.20
2023-08-13T15:10:39.986Z,110.07
2023-08-13T15:12:43.815Z,65.18
2023-08-13T15:14:46.660Z,130.82
2023-08-13T15:16:51.598Z,71.88
2023-08-13T15:18:54.193Z,234.95
2023-08-13T15:20:56.868Z,68.82
2023-08-13T15:22:59.423Z,88.75
2023-08-13T15:25:05.949Z,60.70
2023-08-13T15:27:08.882Z,94.63
2023-08-13T15:29:11.548Z,65.47
2023-08-13T15:31:14.107Z,72.45
2023-08-13T15:33:17.371Z,61.33
2023-08-13T15:35:19.908Z,60.75
2023-08-13T15:37:22.543Z,73.88
2023-08-13T15:39:25.367Z,82.32
2023-08-13T15:41:30.484Z,158.77
2023-08-13T15:43:33.035Z,82.82
2023-08-13T15:45:35.510Z,56.53
2023-08-13T15:47:38.156Z,90.00
2023-08-13T15:49:40.667Z,78.93
2023-08-13T15:51:46.267Z,67.78
2023-08-13T15:53:48.810Z,102.95
2023-08-13T15:55:51.397Z,115.85
2023-08-13T15:57:56.596Z,100.80
2023-08-13T16:00:02.020Z,129.77
2023-08-13T16:02:04.615Z,84.70
2023-08-13T16:04:07.615Z,166.48
2023-08-13T16:06:10.153Z,96.77
2023-08-13T16:08:12.814Z,108.65
2023-08-13T16:10:15.864Z,89.13
2023-08-13T16:12:18.870Z,88.40
2023-08-13T16:14:24.166Z,62.20
2023-08-13T16:16:26.721Z,128.02
2023-08-13T16:18:29.237Z,172.38
2023-08-13T16:20:31.901Z,133.10
2023-08-13T16:22:34.491Z,120.03
2023-08-13T16:24:36.985Z,108.53
2023-08-13T16:26:39.509Z,134.38
2023-08-13T16:28:41.956Z,181.90
2023-08-13T16:30:47.062Z,152.40
2023-08-13T16:32:49.645Z,188.32
2023-08-13T16:34:53.150Z,107.03
2023-08-13T16:36:55.602Z,149.43
2023-08-13T16:38:58.052Z,164.32
2023-08-13T16:41:00.666Z,167.55
2023-08-13T16:43:08.568Z,113.05
2023-08-13T16:45:13.881Z,149.43
2023-08-13T16:47:19.208Z,156.70
2023-08-13T16:49:22.939Z,183.35
2023-08-13T16:51:25.994Z,153.05
2023-08-13T16:53:28.548Z,164.35
2023-08-13T16:55:31.068Z,164.05
2023-08-13T16:57:34.892Z,165.98
2023-08-13T16:59:37.437Z,153.98
2023-08-13T17:01:39.939Z,182.77
2023-08-13T17:03:45.178Z,189.55
2023-08-13T17:05:49.280Z,172.00
2023-08-13T17:09:55.416Z,192.60
2023-08-13T17:11:57.971Z,206.95
2023-08-13T17:14:00.462Z,173.90
2023-08-13T17:16:05.430Z,193.55
2023-08-13T17:18:08.878Z,117.82
2023-08-13T17:20:18.536Z,226.10
2023-08-13T17:22:22.559Z,72.03
2023-08-13T17:24:25.144Z,100.57
2023-08-13T17:26:27.704Z,58.50
2023-08-13T17:28:30.232Z,50.92
2023-08-13T17:30:32.682Z,35.60
2023-08-13T17:32:35.290Z,36.03
2023-08-13T17:34:37.767Z,28.92
2023-08-13T17:36:43.688Z,35.10
2023-08-13T17:38:46.183Z,47.95
2023-08-13T17:40:48.723Z,77.65
2023-08-13T17:42:51.247Z,96.80
2023-08-13T17:44:53.786Z,114.72
2023-08-13T17:46:56.509Z,121.93
2023-08-13T17:48:59.003Z,125.35
2023-08-13T17:51:01.535Z,120.88
2023-08-13T17:53:08.497Z,106.30
2023-08-13T17:55:11.302Z,99.60
2023-08-13T17:57:13.915Z,118.47
2023-08-13T17:59:16.444Z,111.85
2023-08-13T18:01:18.879Z,118.22
2023-08-13T18:03:21.454Z,89.05
2023-08-13T18:05:24.063Z,90.85
2023-08-13T18:07:28.088Z,97.00
2023-08-13T18:09:33.397Z,94.40
2023-08-13T18:11:36.109Z,113.00
2023-08-13T18:13:38.634Z,112.88
2023-08-13T18:15:44.006Z,119.63
2023-08-13T18:17:49.836Z,115.82
2023-08-13T18:19:52.630Z,106.90
2023-08-13T18:21:55.068Z,123.82
2023-08-13T18:23:57.906Z,119.38
2023-08-13T18:26:02.906Z,124.57
2023-08-13T18:28:05.642Z,135.88
2023-08-13T18:30:09.291Z,139.90
2023-08-13T18:32:11.874Z,137.35
2023-08-13T18:34:14.416Z,164.52
2023-08-13T18:36:16.902Z,162.95
2023-08-13T18:38:21.084Z,178.63
2023-08-13T18:40:24.447Z,196.80
2023-08-13T18:42:29.623Z,194.55
2023-08-13T18:44:32.071Z,209.25
2023-08-13T18:46:34.624Z,186.82
2023-08-13T18:48:37.290Z,181.38
2023-08-13T18:50:39.860Z,193.95
2023-08-13T18:52:45.385Z,196.90
2023-08-13T18:54:47.894Z,192.02
2023-08-13T18:56:50.503Z,189.27
2023-08-13T18:58:55.598Z,185.55
2023-08-13T19:00:58.246Z,200.15
2023-08-13T19:03:01.109Z,201.30
2023-08-13T19:05:13.057Z,224.15
2023-08-13T19:07:15.802Z,162.55
2023-08-13T19:09:18.355Z,207.32
2023-08-13T19:11:20.829Z,224.05
2023-08-13T19:13:23.437Z,240.38
2023-08-13T19:15:28.721Z,235.35
2023-08-13T19:17:31.295Z,255.15
2023-08-13T19:19:33.978Z,241.05
2023-08-13T19:21:36.566Z,263.27
2023-08-13T19:23:39.164Z,271.60
2023-08-13T19:25:41.662Z,283.15
2023-08-13T19:27:44.226Z,281.90
2023-08-13T19:29:47.154Z,292.40
2023-08-13T19:31:52.296Z,245.05
2023-08-13T19:33:54.798Z,275.08
2023-08-13T19:35:57.316Z,303.05
2023-08-13T19:37:59.882Z,294.95
2023-08-13T19:40:08.517Z,281.85
2023-08-13T19:42:11.118Z,335.63
2023-08-13T19:44:21.017Z,341.38
2023-08-13T19:46:34.415Z,333.60
2023-08-13T19:48:39.601Z,316.33
2023-08-13T19:50:42.110Z,349.77
2023-08-13T19:52:44.635Z,345.92
2023-08-13T19:54:47.217Z,346.65
2023-08-13T19:56:49.750Z,343.25
2023-08-13T19:58:52.288Z,347.73
2023-08-13T20:00:57.130Z,362.77
2023-08-13T20:03:01.105Z,359.83
2023-08-13T20:07:10.124Z,386.95
2023-08-13T20:09:12.611Z,408.77
2023-08-13T20:11:15.702Z,386.10
2023-08-13T20:13:18.408Z,375.75
2023-08-13T20:15:21.469Z,359.15
2023-08-13T20:17:24.699Z,361.08
2023-08-13T20:19:27.299Z,363.40
2023-08-13T20:21:46.403Z,352.10
2023-08-13T20:23:50.316Z,355.77
2023-08-13T20:25:53.968Z,322.05
2023-08-13T20:27:56.509Z,365.70
2023-08-13T20:29:59.031Z,371.65
2023-08-13T20:32:01.502Z,395.33
2023-08-13T20:34:04.504Z,375.73
2023-08-13T20:36:07.509Z,398.40
2023-08-13T20:38:12.548Z,394.27
2023-08-13T20:40:16.333Z,377.63
2023-08-13T20:42:19.398Z,390.48
2023-08-13T20:44:22.205Z,410.80
2023-08-13T20:46:24.741Z,431.15
2023-08-13T20:48:27.304Z,428.13
2023-08-13T20:50:30.044Z,398.33
2023-08-13T20:52:32.632Z,413.67
2023-08-13T20:54:37.766Z,413.80
2023-08-13T20:56:40.333Z,427.63
2023-08-13T20:58:43.050Z,435.77
2023-08-13T21:00:45.984Z,409.90
2023-08-13T21:02:48.782Z,398.65
2023-08-13T21:04:51.675Z,419.08
2023-08-13T21:06:54.253Z,433.48
2023-08-13T21:08:56.879Z,426.05
2023-08-13T21:11:02.091Z,427.92
2023-08-13T21:13:04.829Z,450.92
2023-08-13T21:15:08.318Z,368.40
2023-08-13T21:17:10.886Z,355.33
2023-08-13T21:19:13.513Z,370.77
2023-08-13T21:21:16.104Z,416.75
2023-08-13T21:23:18.628Z,459.55
2023-08-13T21:25:21.192Z,435.50
2023-08-13T21:27:26.294Z,450.00
2023-08-13T21:29:28.801Z,466.10
2023-08-13T21:31:31.350Z,438.50
2023-08-13T21:33:34.062Z,435.15
2023-08-13T21:35:36.661Z,366.00
2023-08-13T21:37:39.114Z,432.85
2023-08-13T21:39:41.630Z,298.25
2023-08-13T21:41:44.868Z,271.05
2023-08-13T21:43:50.550Z,290.65
2023-08-13T21:45:53.135Z,371.42
2023-08-13T21:47:55.684Z,348.42
2023-08-13T21:49:58.278Z,373.25
2023-08-13T21:52:03.185Z,354.88
2023-08-13T21:54:06.059Z,422.60
2023-08-13T21:56:08.623Z,311.33
2023-08-13T21:58:11.135Z,368.23
2023-08-13T22:00:17.481Z,294.17
2023-08-13T22:02:20.431Z,279.25
2023-08-13T22:04:23.207Z,316.23
2023-08-13T22:06:25.772Z,324.52
2023-08-13T22:08:28.459Z,114.55
2023-08-13T22:10:30.995Z,212.70
2023-08-13T22:12:33.551Z,215.80
2023-08-13T22:14:36.289Z,292.38
2023-08-13T22:16:41.683Z,368.52
2023-08-13T22:18:44.223Z,112.15
2023-08-13T22:20:46.696Z,106.40
2023-08-13T22:22:50.901Z,110.07
2023-08-13T22:24:53.773Z,111.50
2023-08-13T22:26:56.292Z,103.75
2023-08-13T22:28:58.926Z,104.22
2023-08-13T22:31:01.421Z,126.05
2023-08-13T22:33:07.084Z,131.38
2023-08-13T22:35:09.924Z,189.60
2023-08-13T22:37:12.551Z,157.52
2023-08-13T22:39:15.312Z,224.50
2023-08-13T22:41:17.804Z,146.35
2023-08-13T22:43:21.129Z,134.27
2023-08-13T22:45:23.652Z,136.05
2023-08-13T22:47:26.532Z,151.20
2023-08-13T22:49:35.978Z,110.72
2023-08-13T22:51:38.552Z,143.82
2023-08-13T22:53:41.154Z,106.95
2023-08-13T22:55:44.570Z,99.20
2023-08-13T22:57:47.532Z,107.28
2023-08-13T22:59:50.060Z,137.68
2023-08-13T23:01:52.732Z,106.90
2023-08-13T23:03:55.285Z,119.97
2023-08-13T23:06:00.445Z,120.68
2023-08-13T23:08:05.654Z,145.98
2023-08-13T23:10:09.401Z,166.20
2023-08-13T23:12:11.941Z,153.68
2023-08-13T23:14:14.433Z,236.60
2023-08-13T23:16:17.105Z,182.82
2023-08-13T23:18:19.898Z,236.15
2023-08-13T23:20:22.498Z,260.25
2023-08-13T23:22:27.714Z,339.23
2023-08-13T23:24:30.183Z,374.75
2023-08-13T23:26:32.724Z,347.15
2023-08-13T23:28:35.288Z,444.80
2023-08-13T23:30:37.825Z,349.80
2023-08-13T23:32:40.375Z,164.73
2023-08-13T23:34:42.988Z,188.48
2023-08-13T23:36:45.868Z,111.10
2023-08-13T23:38:51.045Z,193.52
2023-08-13T23:40:53.732Z,189.82
2023-08-13T23:42:56.256Z,144.23
2023-08-13T23:44:59.725Z,148.20
2023-08-13T23:47:02.252Z,164.73
2023-08-13T23:49:05.114Z,195.25
2023-08-13T23:51:07.669Z,172.88
2023-08-13T23:53:10.282Z,187.38
2023-08-13T23:55:15.667Z,238.68
2023-08-13T23:57:18.215Z,164.23
2023-08-13T23:59:20.704Z,165.40
